createdAt,value
2023-05-21T00:01:11.238Z,100643.15
2023-05-21T00:03:42.410Z,100642.28
2023-05-21T00:06:09.888Z,100641.69
2023-05-21T00:08:37.395Z,100649.88
2023-05-21T00:11:04.646Z,100646.99
2023-05-21T00:13:31.995Z,100647.73
2023-05-21T00:15:59.344Z,100649.38
2023-05-21T00:18:27.016Z,100646.45
2023-05-21T00:20:55.190Z,100647.12
2023-05-21T00:23:22.443Z,100644.85
2023-05-21T00:25:51.210Z,100647.04
2023-05-21T00:28:20.410Z,100651.41
2023-05-21T00:30:48.158Z,100651.48
2023-05-21T00:33:17.628Z,100652.43
2023-05-21T00:35:44.841Z,100650.42
2023-05-21T00:38:12.075Z,100653.73
2023-05-21T00:40:41.682Z,100647.96
2023-05-21T00:43:10.573Z,100652.90
2023-05-21T00:45:38.305Z,100649.00
2023-05-21T00:48:06.854Z,100645.48
2023-05-21T00:50:34.597Z,100639.77
2023-05-21T00:53:01.848Z,100642.23
2023-05-21T00:55:29.300Z,100644.83
2023-05-21T00:57:56.650Z,100643.81
2023-05-21T01:00:26.877Z,100650.08
2023-05-21T01:02:54.520Z,100648.05
2023-05-21T01:05:22.605Z,100643.70
2023-05-21T01:07:49.939Z,100638.55
2023-05-21T01:10:17.111Z,100638.02
2023-05-21T01:12:44.652Z,100641.10
2023-05-21T01:15:12.757Z,100636.28
2023-05-21T01:17:40.461Z,100633.98
2023-05-21T01:20:11.414Z,100630.64
2023-05-21T01:22:42.778Z,100634.20
2023-05-21T01:25:11.228Z,100630.91
2023-05-21T01:27:38.406Z,100636.48
2023-05-21T01:30:06.696Z,100636.59
2023-05-21T01:32:42.911Z,100630.34
2023-05-21T01:35:39.324Z,100628.52
2023-05-21T01:38:18.737Z,100628.16
2023-05-21T01:41:05.505Z,100626.03
2023-05-21T01:43:34.736Z,100628.08
2023-05-21T01:46:02.212Z,100627.34
2023-05-21T01:48:30.383Z,100627.50
2023-05-21T01:50:59.269Z,100626.31
2023-05-21T01:53:26.725Z,100627.48
2023-05-21T01:55:54.950Z,100626.18
2023-05-21T01:58:23.366Z,100627.31
2023-05-21T02:00:55.024Z,100624.79
2023-05-21T02:03:26.142Z,100620.02
2023-05-21T02:05:53.722Z,100618.66
2023-05-21T02:08:21.166Z,100616.41
2023-05-21T02:10:48.309Z,100613.19
2023-05-21T02:13:16.300Z,100608.73
2023-05-21T02:15:43.651Z,100603.94
2023-05-21T02:18:11.912Z,100607.80
2023-05-21T02:20:39.182Z,100611.34
2023-05-21T02:23:06.678Z,100606.16
2023-05-21T02:25:34.282Z,100603.98
2023-05-21T02:28:02.892Z,100603.02
2023-05-21T02:30:30.239Z,100599.33
2023-05-21T02:32:59.318Z,100599.39
2023-05-21T02:35:27.373Z,100605.02
2023-05-21T02:37:59.598Z,100601.42
2023-05-21T02:40:27.018Z,100601.23
2023-05-21T02:42:54.274Z,100600.23
2023-05-21T02:45:21.943Z,100602.52
2023-05-21T02:47:49.455Z,100599.59
2023-05-21T02:50:18.599Z,100592.59
2023-05-21T02:52:51.169Z,100591.15
2023-05-21T02:55:18.515Z,100594.63
2023-05-21T02:57:45.779Z,100594.88
2023-05-21T03:00:14.170Z,100596.73
2023-05-21T03:02:42.945Z,100599.12
2023-05-21T03:05:10.843Z,100596.66
2023-05-21T03:07:39.064Z,100599.58
2023-05-21T03:10:07.351Z,100599.36
2023-05-21T03:12:34.602Z,100599.31
2023-05-21T03:15:02.159Z,100599.59
2023-05-21T03:17:29.534Z,100602.92
2023-05-21T03:19:58.505Z,100604.30
2023-05-21T03:22:25.972Z,100602.13
2023-05-21T03:24:53.827Z,100600.51
2023-05-21T03:27:21.381Z,100596.39
2023-05-21T03:29:49.459Z,100596.83
2023-05-21T03:32:17.173Z,100592.77
2023-05-21T03:34:45.732Z,100598.65
2023-05-21T03:37:13.058Z,100597.80
2023-05-21T03:39:41.239Z,100598.09
2023-05-21T03:42:08.365Z,100602.43
2023-05-21T03:44:44.231Z,100601.48
2023-05-21T03:47:29.922Z,100604.98
2023-05-21T03:49:58.402Z,100608.97
2023-05-21T03:52:25.965Z,100611.67
2023-05-21T03:54:53.420Z,100612.32
2023-05-21T03:57:21.278Z,100612.05
2023-05-21T03:59:49.454Z,100615.14
2023-05-21T04:02:16.963Z,100618.54
2023-05-21T04:04:45.837Z,100621.37
2023-05-21T04:07:15.652Z,100623.58
2023-05-21T04:09:43.199Z,100624.29
2023-05-21T04:12:13.700Z,100622.30
2023-05-21T04:14:41.572Z,100619.38
2023-05-21T04:17:10.128Z,100613.93
2023-05-21T04:19:38.428Z,100621.97
2023-05-21T04:22:06.081Z,100623.76
2023-05-21T04:24:34.054Z,100624.98
2023-05-21T04:27:24.106Z,100627.71
2023-05-21T04:29:51.685Z,100626.80
2023-05-21T04:32:18.941Z,100625.67
2023-05-21T04:34:46.394Z,100621.45
2023-05-21T04:37:14.174Z,100620.77
2023-05-21T04:39:41.419Z,100619.95
2023-05-21T04:42:11.281Z,100621.25
2023-05-21T04:44:40.685Z,100618.19
2023-05-21T04:47:08.546Z,100619.23
2023-05-21T04:49:36.687Z,100620.88
2023-05-21T04:52:04.525Z,100616.90
2023-05-21T04:54:31.791Z,100616.86
2023-05-21T04:56:59.358Z,100610.73
2023-05-21T04:59:26.590Z,100610.88
2023-05-21T05:01:53.846Z,100615.10
2023-05-21T05:04:22.337Z,100615.88
2023-05-21T05:06:50.011Z,100620.60
2023-05-21T05:09:17.449Z,100626.96
2023-05-21T05:11:45.245Z,100630.14
2023-05-21T05:14:12.568Z,100632.84
2023-05-21T05:16:40.071Z,100629.86
2023-05-21T05:19:07.548Z,100628.52
2023-05-21T05:21:35.036Z,100630.01
2023-05-21T05:24:02.201Z,100624.08
2023-05-21T05:26:29.952Z,100622.48
2023-05-21T05:28:57.605Z,100624.36
2023-05-21T05:31:25.265Z,100622.80
2023-05-21T05:33:53.060Z,100623.52
2023-05-21T05:36:21.823Z,100621.67
2023-05-21T05:38:49.210Z,100622.35
2023-05-21T05:41:16.837Z,100620.98
2023-05-21T05:43:44.085Z,100615.08
2023-05-21T05:46:11.398Z,100610.84
2023-05-21T05:48:41.153Z,100606.86
2023-05-21T05:51:09.748Z,100608.21
2023-05-21T05:53:37.081Z,100603.42
2023-05-21T05:56:05.477Z,100604.91
2023-05-21T05:58:33.545Z,100600.91
2023-05-21T06:01:10.016Z,100595.80
2023-05-21T06:03:37.416Z,100592.85
2023-05-21T06:06:13.973Z,100587.98
2023-05-21T06:08:41.271Z,100589.73
2023-05-21T06:11:08.613Z,100588.46
2023-05-21T06:13:36.191Z,100588.19
2023-05-21T06:16:04.251Z,100587.50
2023-05-21T06:18:31.532Z,100580.85
2023-05-21T06:21:00.324Z,100578.81
2023-05-21T06:23:27.980Z,100573.98
2023-05-21T06:25:55.621Z,100573.59
2023-05-21T06:28:24.031Z,100571.05
2023-05-21T06:30:51.876Z,100573.72
2023-05-21T06:33:20.868Z,100569.09
2023-05-21T06:35:48.320Z,100571.27
2023-05-21T06:38:15.797Z,100571.59
2023-05-21T06:40:44.980Z,100571.89
2023-05-21T06:43:14.339Z,100578.48
2023-05-21T06:46:00.242Z,100566.48
2023-05-21T06:48:46.896Z,100565.09
2023-05-21T06:51:16.879Z,100564.59
2023-05-21T06:53:44.643Z,100563.08
2023-05-21T06:56:15.487Z,100562.33
2023-05-21T06:58:43.958Z,100565.92
2023-05-21T07:01:12.741Z,100562.22
2023-05-21T07:03:40.035Z,100560.02
2023-05-21T07:06:08.584Z,100558.44
2023-05-21T07:08:36.461Z,100561.45
2023-05-21T07:11:04.030Z,100567.23
2023-05-21T07:13:31.450Z,100563.89
2023-05-21T07:15:58.822Z,100564.19
2023-05-21T07:18:26.695Z,100557.85
2023-05-21T07:20:54.436Z,100561.14
2023-05-21T07:23:21.910Z,100559.48
2023-05-21T07:25:50.689Z,100559.91
2023-05-21T07:28:19.344Z,100567.45
2023-05-21T07:30:46.930Z,100564.73
2023-05-21T07:33:17.583Z,100558.80
2023-05-21T07:35:45.236Z,100556.53
2023-05-21T07:38:12.579Z,100557.02
2023-05-21T07:40:39.936Z,100555.65
2023-05-21T07:43:07.292Z,100558.06
2023-05-21T07:45:36.390Z,100553.05
2023-05-21T07:48:06.176Z,100552.37
2023-05-21T07:50:34.273Z,100553.92
2023-05-21T07:53:01.674Z,100551.91
2023-05-21T07:55:31.242Z,100552.52
2023-05-21T07:57:58.795Z,100548.77
2023-05-21T08:00:30.158Z,100549.96
2023-05-21T08:03:00.186Z,100556.36
2023-05-21T08:05:29.256Z,100551.70
2023-05-21T08:07:57.516Z,100552.87
2023-05-21T08:10:25.195Z,100553.02
2023-05-21T08:12:52.755Z,100550.70
2023-05-21T08:15:20.201Z,100552.83
2023-05-21T08:17:51.221Z,100552.61
2023-05-21T08:20:21.174Z,100551.99
2023-05-21T08:22:48.960Z,100549.48
2023-05-21T08:25:17.019Z,100548.29
2023-05-21T08:27:44.665Z,100552.46
2023-05-21T08:30:12.515Z,100546.59
2023-05-21T08:32:39.832Z,100550.30
2023-05-21T08:35:08.716Z,100548.41
2023-05-21T08:38:03.055Z,100541.39
2023-05-21T08:40:44.325Z,100538.47
2023-05-21T08:43:15.067Z,100541.44
2023-05-21T08:45:51.753Z,100542.48
2023-05-21T08:48:19.073Z,100539.16
2023-05-21T08:50:47.181Z,100536.91
2023-05-21T08:53:27.508Z,100536.27
2023-05-21T08:56:00.232Z,100534.60
2023-05-21T08:58:47.937Z,100527.91
2023-05-21T09:01:19.878Z,100532.02
2023-05-21T09:03:49.711Z,100530.23
2023-05-21T09:06:16.850Z,100531.23
2023-05-21T09:08:46.758Z,100525.09
2023-05-21T09:11:27.781Z,100524.34
2023-05-21T09:13:57.034Z,100525.87
2023-05-21T09:16:50.768Z,100533.05
2023-05-21T09:19:22.295Z,100536.58
2023-05-21T09:21:52.008Z,100538.23
2023-05-21T09:24:23.141Z,100537.36
2023-05-21T09:26:51.685Z,100531.55
2023-05-21T09:29:20.605Z,100528.61
2023-05-21T09:31:48.172Z,100523.82
2023-05-21T09:34:17.556Z,100524.30
2023-05-21T09:36:46.337Z,100519.66
2023-05-21T09:39:16.757Z,100521.86
2023-05-21T09:41:44.768Z,100524.92
2023-05-21T09:44:12.089Z,100523.13
2023-05-21T09:46:42.883Z,100522.17
2023-05-21T09:49:26.819Z,100521.46
2023-05-21T09:52:01.077Z,100518.25
2023-05-21T09:54:32.603Z,100513.85
2023-05-21T09:57:04.294Z,100517.18
2023-05-21T09:59:39.047Z,100512.27
2023-05-21T10:02:20.532Z,100512.50
2023-05-21T10:04:51.607Z,100514.60
2023-05-21T10:07:22.380Z,100512.13
2023-05-21T10:09:49.513Z,100509.02
2023-05-21T10:12:18.335Z,100505.44
2023-05-21T10:14:46.066Z,100503.80
2023-05-21T10:17:13.209Z,100505.34
2023-05-21T10:19:40.834Z,100499.21
2023-05-21T10:22:08.445Z,100498.81
2023-05-21T10:24:35.801Z,100499.29
2023-05-21T10:27:04.264Z,100490.23
2023-05-21T10:29:31.534Z,100494.52
2023-05-21T10:31:58.918Z,100493.39
2023-05-21T10:34:26.435Z,100487.63
2023-05-21T10:36:53.813Z,100493.52
2023-05-21T10:39:21.239Z,100490.00
2023-05-21T10:42:32.737Z,100490.98
2023-05-21T10:45:24.901Z,100486.32
2023-05-21T10:48:23.351Z,100483.42
2023-05-21T10:51:29.567Z,100486.05
2023-05-21T10:54:12.865Z,100479.45
2023-05-21T10:56:45.330Z,100486.39
2023-05-21T10:59:41.655Z,100484.35
2023-05-21T11:02:09.544Z,100478.95
2023-05-21T11:04:40.276Z,100470.80
2023-05-21T11:07:07.833Z,100475.68
2023-05-21T11:09:35.385Z,100473.08
2023-05-21T11:12:04.986Z,100472.49
2023-05-21T11:14:37.149Z,100471.07
2023-05-21T11:17:10.519Z,100469.02
2023-05-21T11:19:42.355Z,100466.49
2023-05-21T11:22:30.874Z,100465.16
2023-05-21T11:25:01.502Z,100466.77
2023-05-21T11:27:36.833Z,100462.52
2023-05-21T11:30:10.773Z,100461.80
2023-05-21T11:32:40.516Z,100459.36
2023-05-21T11:35:08.407Z,100462.06
2023-05-21T11:37:35.883Z,100463.13
2023-05-21T11:40:26.606Z,100461.41
2023-05-21T11:42:54.983Z,100456.79
2023-05-21T11:45:23.459Z,100454.84
2023-05-21T11:47:51.178Z,100450.79
2023-05-21T11:50:18.536Z,100448.17
2023-05-21T11:52:45.931Z,100453.56
2023-05-21T11:55:15.970Z,100450.44
2023-05-21T11:57:45.107Z,100448.06
2023-05-21T12:00:16.850Z,100443.20
2023-05-21T12:02:50.312Z,100436.64
2023-05-21T12:05:17.720Z,100438.05
2023-05-21T12:07:48.992Z,100436.89
2023-05-21T12:10:17.246Z,100426.34
2023-05-21T12:12:54.804Z,100432.29
2023-05-21T12:15:24.460Z,100430.75
2023-05-21T12:17:53.426Z,100424.49
2023-05-21T12:20:21.158Z,100428.18
2023-05-21T12:22:51.317Z,100424.69
2023-05-21T12:25:21.834Z,100427.02
2023-05-21T12:27:50.524Z,100421.06
2023-05-21T12:30:17.574Z,100416.69
2023-05-21T12:32:45.008Z,100418.27
2023-05-21T12:35:23.245Z,100414.86
2023-05-21T12:37:51.434Z,100410.58
2023-05-21T12:40:18.694Z,100406.08
2023-05-21T12:42:46.365Z,100408.37
2023-05-21T12:45:14.195Z,100407.96
2023-05-21T12:47:41.595Z,100408.91
2023-05-21T12:50:12.234Z,100405.27
2023-05-21T12:52:40.822Z,100403.81
2023-05-21T12:55:10.963Z,100403.40
2023-05-21T12:57:42.132Z,100400.65
2023-05-21T13:00:12.917Z,100395.88
2023-05-21T13:02:42.191Z,100396.30
2023-05-21T13:05:11.500Z,100386.59
2023-05-21T13:07:39.849Z,100385.27
2023-05-21T13:10:08.005Z,100382.25
2023-05-21T13:12:35.144Z,100378.95
2023-05-21T13:15:03.136Z,100373.91
2023-05-21T13:17:30.772Z,100375.98
2023-05-21T13:20:15.380Z,100375.23
2023-05-21T13:22:45.562Z,100372.20
2023-05-21T13:25:16.215Z,100371.45
2023-05-21T13:27:43.760Z,100366.80
2023-05-21T13:30:14.261Z,100362.13
2023-05-21T13:32:42.352Z,100360.68
2023-05-21T13:35:10.437Z,100361.38
2023-05-21T13:37:37.779Z,100360.55
2023-05-21T13:40:06.744Z,100356.96
2023-05-21T13:42:34.894Z,100357.63
2023-05-21T13:45:02.092Z,100356.40
2023-05-21T13:47:29.405Z,100351.92
2023-05-21T13:49:56.596Z,100347.70
2023-05-21T13:52:24.149Z,100348.66
2023-05-21T13:54:53.563Z,100354.36
2023-05-21T13:57:21.216Z,100351.39
2023-05-21T13:59:48.675Z,100348.16
2023-05-21T14:02:18.931Z,100346.75
2023-05-21T14:04:46.355Z,100347.27
2023-05-21T14:07:13.730Z,100350.48
2023-05-21T14:09:41.037Z,100347.79
2023-05-21T14:12:08.674Z,100345.48
2023-05-21T14:14:37.310Z,100346.39
2023-05-21T14:17:06.611Z,100346.20
2023-05-21T14:19:34.002Z,100342.19
2023-05-21T14:22:01.726Z,100344.58
2023-05-21T14:24:29.170Z,100348.38
2023-05-21T14:26:56.643Z,100344.55
2023-05-21T14:29:23.915Z,100340.50
2023-05-21T14:31:51.290Z,100339.86
2023-05-21T14:34:18.498Z,100341.96
2023-05-21T14:36:45.956Z,100339.23
2023-05-21T14:39:13.206Z,100337.30
2023-05-21T14:41:40.764Z,100333.93
2023-05-21T14:44:09.247Z,100333.00
2023-05-21T14:46:37.196Z,100330.05
2023-05-21T14:49:05.367Z,100327.33
2023-05-21T14:51:32.758Z,100323.69
2023-05-21T14:54:00.300Z,100321.27
2023-05-21T14:56:28.408Z,100320.14
2023-05-21T14:58:55.911Z,100320.97
2023-05-21T15:01:23.441Z,100315.45
2023-05-21T15:03:51.219Z,100314.90
2023-05-21T15:06:18.817Z,100309.39
2023-05-21T15:08:46.354Z,100308.86
2023-05-21T15:11:13.500Z,100309.05
2023-05-21T15:13:40.973Z,100305.59
2023-05-21T15:16:08.415Z,100305.63
2023-05-21T15:18:35.903Z,100304.50
2023-05-21T15:21:03.341Z,100305.55
2023-05-21T15:23:31.571Z,100305.11
2023-05-21T15:25:58.972Z,100304.19
2023-05-21T15:28:26.551Z,100307.19
2023-05-21T15:30:54.094Z,100303.93
2023-05-21T15:33:21.356Z,100305.60
2023-05-21T15:35:49.087Z,100309.41
2023-05-21T15:38:18.014Z,100307.59
2023-05-21T15:40:45.351Z,100309.54
2023-05-21T15:43:12.768Z,100306.27
2023-05-21T15:45:40.270Z,100309.87
2023-05-21T15:48:07.909Z,100308.48
2023-05-21T15:50:38.750Z,100306.60
2023-05-21T15:53:05.892Z,100306.67
2023-05-21T15:55:33.921Z,100311.36
2023-05-21T15:58:02.555Z,100307.49
2023-05-21T16:00:30.432Z,100307.05
2023-05-21T16:02:58.219Z,100308.91
2023-05-21T16:05:26.563Z,100303.87
2023-05-21T16:07:54.627Z,100306.13
2023-05-21T16:10:23.213Z,100306.50
2023-05-21T16:12:51.437Z,100302.44
2023-05-21T16:15:21.627Z,100303.42
2023-05-21T16:17:49.009Z,100298.65
2023-05-21T16:20:20.395Z,100299.88
2023-05-21T16:22:48.680Z,100303.55
2023-05-21T16:25:15.949Z,100309.63
2023-05-21T16:27:43.088Z,100310.84
2023-05-21T16:30:12.037Z,100309.29
2023-05-21T16:32:39.837Z,100310.56
2023-05-21T16:35:09.681Z,100313.19
2023-05-21T16:37:36.908Z,100314.54
2023-05-21T16:40:05.045Z,100315.77
2023-05-21T16:42:34.019Z,100317.09
2023-05-21T16:45:01.550Z,100315.31
2023-05-21T16:47:29.229Z,100313.39
2023-05-21T16:49:56.542Z,100314.63
2023-05-21T16:52:24.422Z,100315.10
2023-05-21T16:54:51.769Z,100315.44
2023-05-21T16:57:19.150Z,100314.89
2023-05-21T16:59:46.483Z,100315.22
2023-05-21T17:02:14.256Z,100316.77
2023-05-21T17:04:42.322Z,100317.42
2023-05-21T17:07:11.922Z,100316.80
2023-05-21T17:09:39.170Z,100311.66
2023-05-21T17:12:07.021Z,100311.80
2023-05-21T17:14:35.447Z,100313.84
2023-05-21T17:17:03.825Z,100312.92
2023-05-21T17:19:31.273Z,100316.73
2023-05-21T17:21:58.788Z,100316.41
2023-05-21T17:24:26.085Z,100316.84
2023-05-21T17:26:53.872Z,100317.96
2023-05-21T17:29:21.061Z,100319.27
2023-05-21T17:31:48.341Z,100314.26
2023-05-21T17:34:17.049Z,100315.56
2023-05-21T17:36:44.195Z,100316.17
2023-05-21T17:39:11.547Z,100310.92
2023-05-21T17:41:38.829Z,100312.55
2023-05-21T17:44:06.202Z,100314.02
2023-05-21T17:46:33.507Z,100312.39
2023-05-21T17:49:01.164Z,100313.60
2023-05-21T17:51:28.554Z,100319.40
2023-05-21T17:53:56.739Z,100320.55
2023-05-21T17:56:24.099Z,100320.84
2023-05-21T17:58:51.475Z,100321.19
2023-05-21T18:01:18.878Z,100321.61
2023-05-21T18:03:46.863Z,100322.09
2023-05-21T18:06:14.421Z,100328.45
2023-05-21T18:08:41.834Z,100330.78
2023-05-21T18:11:11.463Z,100331.30
2023-05-21T18:13:38.586Z,100329.81
2023-05-21T18:16:06.048Z,100330.08
2023-05-21T18:18:33.472Z,100329.61
2023-05-21T18:21:00.876Z,100327.83
2023-05-21T18:23:28.916Z,100328.92
2023-05-21T18:25:56.774Z,100326.27
2023-05-21T18:28:24.615Z,100324.42
2023-05-21T18:30:53.674Z,100322.73
2023-05-21T18:33:21.384Z,100327.05
2023-05-21T18:35:50.945Z,100324.32
2023-05-21T18:38:19.083Z,100326.92
2023-05-21T18:40:49.088Z,100327.56
2023-05-21T18:43:20.652Z,100328.05
2023-05-21T18:45:48.407Z,100324.61
2023-05-21T18:48:16.886Z,100322.09
2023-05-21T18:50:46.974Z,100327.44
2023-05-21T18:53:14.859Z,100334.27
2023-05-21T18:55:43.429Z,100337.52
2023-05-21T18:58:11.230Z,100333.69
2023-05-21T19:00:39.913Z,100336.33
2023-05-21T19:03:07.772Z,100339.07
2023-05-21T19:05:35.464Z,100340.24
2023-05-21T19:08:04.357Z,100341.11
2023-05-21T19:10:37.311Z,100341.37
2023-05-21T19:13:06.297Z,100344.48
2023-05-21T19:15:36.571Z,100347.23
2023-05-21T19:18:04.057Z,100346.21
2023-05-21T19:20:32.649Z,100344.48
2023-05-21T19:23:00.557Z,100343.46
2023-05-21T19:25:29.739Z,100343.41
2023-05-21T19:27:58.492Z,100346.60
2023-05-21T19:30:27.517Z,100342.80
2023-05-21T19:32:55.130Z,100343.83
2023-05-21T19:35:24.301Z,100339.70
2023-05-21T19:40:40.487Z,100346.80
2023-05-21T19:43:14.385Z,100350.82
2023-05-21T19:45:47.356Z,100351.02
2023-05-21T19:48:18.062Z,100354.97
2023-05-21T19:50:49.622Z,100355.58
2023-05-21T19:53:20.047Z,100355.10
2023-05-21T19:55:50.478Z,100358.00
2023-05-21T19:58:24.582Z,100360.82
2023-05-21T20:01:01.587Z,100362.52
2023-05-21T20:03:36.039Z,100363.98
2023-05-21T20:06:03.854Z,100362.25
2023-05-21T20:08:31.317Z,100362.61
2023-05-21T20:11:01.210Z,100364.63
2023-05-21T20:13:31.863Z,100367.20
2023-05-21T20:16:01.956Z,100375.34
2023-05-21T20:18:29.311Z,100382.34
2023-05-21T20:21:00.576Z,100385.44
2023-05-21T20:23:50.482Z,100386.95
2023-05-21T20:26:27.255Z,100387.14
2023-05-21T20:29:08.619Z,100394.14
2023-05-21T20:31:38.090Z,100394.84
2023-05-21T20:34:26.656Z,100393.92
2023-05-21T20:37:05.774Z,100393.23
2023-05-21T20:39:47.073Z,100388.51
2023-05-21T20:42:21.990Z,100389.78
2023-05-21T20:44:58.158Z,100390.21
2023-05-21T20:47:30.354Z,100389.56
2023-05-21T20:50:08.167Z,100389.42
2023-05-21T20:52:43.453Z,100389.95
2023-05-21T20:55:15.347Z,100390.70
2023-05-21T20:57:54.765Z,100391.91
2023-05-21T21:00:31.012Z,100393.11
2023-05-21T21:03:08.672Z,100396.91
2023-05-21T21:05:36.721Z,100394.52
2023-05-21T21:08:14.473Z,100392.86
2023-05-21T21:10:47.258Z,100392.60
2023-05-21T21:13:19.719Z,100394.64
2023-05-21T21:15:56.031Z,100397.45
2023-05-21T21:18:23.461Z,100395.35
2023-05-21T21:20:53.245Z,100393.88
2023-05-21T21:23:37.537Z,100395.39
2023-05-21T21:26:11.421Z,100395.45
2023-05-21T21:28:38.900Z,100395.55
2023-05-21T21:31:09.472Z,100399.66
2023-05-21T21:33:41.543Z,100408.60
2023-05-21T21:36:16.521Z,100432.15
2023-05-21T21:38:48.153Z,100441.71
2023-05-21T21:41:27.599Z,100444.05
2023-05-21T21:43:59.413Z,100431.15
2023-05-21T21:46:33.115Z,100432.36
2023-05-21T21:49:03.414Z,100445.02
2023-05-21T21:51:36.559Z,100464.69
2023-05-21T21:54:03.958Z,100458.71
2023-05-21T21:56:43.031Z,100453.63
2023-05-21T21:59:15.338Z,100442.43
2023-05-21T22:01:54.978Z,100439.44
2023-05-21T22:04:30.293Z,100445.81
2023-05-21T22:07:17.428Z,100445.25
2023-05-21T22:09:47.982Z,100445.19
2023-05-21T22:12:25.408Z,100435.98
2023-05-21T22:15:03.824Z,100434.41
2023-05-21T22:17:38.333Z,100439.84
2023-05-21T22:20:09.315Z,100439.27
2023-05-21T22:22:38.851Z,100438.73
2023-05-21T22:25:09.990Z,100437.70
2023-05-21T22:27:40.610Z,100429.96
2023-05-21T22:30:25.027Z,100419.52
2023-05-21T22:33:03.177Z,100414.36
2023-05-21T22:35:32.027Z,100416.16
2023-05-21T22:38:01.199Z,100422.39
2023-05-21T22:40:33.419Z,100425.13
2023-05-21T22:43:05.497Z,100426.98
2023-05-21T22:45:47.143Z,100419.77
2023-05-21T22:48:20.643Z,100416.63
2023-05-21T22:51:12.786Z,100411.17
2023-05-21T22:53:53.887Z,100413.52
2023-05-21T22:56:26.875Z,100414.55
2023-05-21T22:59:00.776Z,100419.19
2023-05-21T23:01:32.262Z,100421.27
2023-05-21T23:04:02.172Z,100416.90
2023-05-21T23:06:37.865Z,100413.69
2023-05-21T23:09:17.846Z,100405.23
2023-05-21T23:11:47.363Z,100403.19
2023-05-21T23:14:15.007Z,100403.10
2023-05-21T23:16:47.699Z,100411.44
2023-05-21T23:19:18.406Z,100417.38
2023-05-21T23:22:00.677Z,100413.27
2023-05-21T23:24:30.351Z,100414.71
2023-05-21T23:27:11.917Z,100412.66
2023-05-21T23:29:55.609Z,100413.27
2023-05-21T23:32:23.978Z,100413.48
2023-05-21T23:34:57.930Z,100413.47
2023-05-21T23:37:31.181Z,100408.85
2023-05-21T23:40:11.653Z,100407.77
2023-05-21T23:42:48.843Z,100404.80
2023-05-21T23:45:29.514Z,100403.85
2023-05-21T23:47:58.472Z,100400.11
2023-05-21T23:50:37.054Z,100396.41
2023-05-21T23:53:13.498Z,100391.63
2023-05-21T23:55:44.253Z,100392.79
2023-05-21T23:58:16.127Z,100396.67
